sensor_id;sensor_type;location;lat;lon;timestamp;pressure;altitude;pressure_sealevel;temperature;humidity
75656;BME280;64252;51.094;13.714;2023-04-03T00:01:35;101515.94;;;2.31;72.35
75656;BME280;64252;51.094;13.714;2023-04-03T00:04:06;101515.72;;;2.28;73.02
75656;BME280;64252;51.094;13.714;2023-04-03T00:06:32;101513.38;;;2.35;70.97
75656;BME280;64252;51.094;13.714;2023-04-03T00:08:58;101518.72;;;2.31;71.46
75656;BME280;64252;51.094;13.714;2023-04-03T00:11:23;101523.50;;;2.31;71.41
75656;BME280;64252;51.094;13.714;2023-04-03T00:13:50;101518.22;;;2.29;70.40
75656;BME280;64252;51.094;13.714;2023-04-03T00:16:16;101521.09;;;2.24;71.48
75656;BME280;64252;51.094;13.714;2023-04-03T00:18:42;101523.88;;;2.24;70.95
75656;BME280;64252;51.094;13.714;2023-04-03T00:21:09;101530.38;;;2.19;71.21
75656;BME280;64252;51.094;13.714;2023-04-03T00:23:37;101537.16;;;2.13;71.15
75656;BME280;64252;51.094;13.714;2023-04-03T00:26:02;101535.75;;;2.16;70.88
75656;BME280;64252;51.094;13.714;2023-04-03T00:28:29;101539.94;;;2.13;71.28
75656;BME280;64252;51.094;13.714;2023-04-03T00:30:54;101541.97;;;2.08;71.42
75656;BME280;64252;51.094;13.714;2023-04-03T00:33:20;101543.72;;;2.04;71.19
75656;BME280;64252;51.094;13.714;2023-04-03T00:35:47;101553.22;;;2.03;71.22
75656;BME280;64252;51.094;13.714;2023-04-03T00:38:14;101551.56;;;2.02;72.27
75656;BME280;64252;51.094;13.714;2023-04-03T00:40:44;101541.63;;;1.96;71.99
75656;BME280;64252;51.094;13.714;2023-04-03T00:43:18;101551.13;;;1.95;71.39
75656;BME280;64252;51.094;13.714;2023-04-03T00:45:46;101552.56;;;1.92;71.97
75656;BME280;64252;51.094;13.714;2023-04-03T00:48:20;101551.28;;;1.85;71.95
75656;BME280;64252;51.094;13.714;2023-04-03T00:50:46;101552.94;;;1.86;70.99
75656;BME280;64252;51.094;13.714;2023-04-03T00:53:21;101544.66;;;1.81;71.19
75656;BME280;64252;51.094;13.714;2023-04-03T00:55:48;101554.22;;;1.74;71.88
75656;BME280;64252;51.094;13.714;2023-04-03T00:58:16;101549.56;;;1.70;71.75
75656;BME280;64252;51.094;13.714;2023-04-03T01:00:47;101566.03;;;1.66;71.37
75656;BME280;64252;51.094;13.714;2023-04-03T01:03:14;101554.38;;;1.64;71.90
75656;BME280;64252;51.094;13.714;2023-04-03T01:05:40;101554.47;;;1.59;71.88
75656;BME280;64252;51.094;13.714;2023-04-03T01:08:06;101561.66;;;1.60;72.34
75656;BME280;64252;51.094;13.714;2023-04-03T01:10:32;101570.69;;;1.52;72.12
75656;BME280;64252;51.094;13.714;2023-04-03T01:12:59;101564.97;;;1.44;72.22
75656;BME280;64252;51.094;13.714;2023-04-03T01:15:26;101574.97;;;1.45;72.26
75656;BME280;64252;51.094;13.714;2023-04-03T01:17:56;101577.00;;;1.39;73.02
75656;BME280;64252;51.094;13.714;2023-04-03T01:25:25;101583.41;;;1.40;72.96
75656;BME280;64252;51.094;13.714;2023-04-03T01:27:51;101586.03;;;1.31;72.68
75656;BME280;64252;51.094;13.714;2023-04-03T01:30:19;101584.28;;;1.35;72.34
75656;BME280;64252;51.094;13.714;2023-04-03T01:32:46;101593.81;;;1.29;72.50
75656;BME280;64252;51.094;13.714;2023-04-03T01:35:12;101589.94;;;1.30;72.30
75656;BME280;64252;51.094;13.714;2023-04-03T01:37:38;101596.09;;;1.27;72.78
75656;BME280;64252;51.094;13.714;2023-04-03T01:40:04;101598.34;;;1.25;72.78
75656;BME280;64252;51.094;13.714;2023-04-03T01:42:31;101593.94;;;1.19;72.45
75656;BME280;64252;51.094;13.714;2023-04-03T01:44:56;101602.97;;;1.11;72.41
75656;BME280;64252;51.094;13.714;2023-04-03T01:47:22;101603.56;;;1.08;73.30
75656;BME280;64252;51.094;13.714;2023-04-03T01:49:48;101608.03;;;1.04;73.52
75656;BME280;64252;51.094;13.714;2023-04-03T01:52:14;101609.00;;;0.94;73.77
75656;BME280;64252;51.094;13.714;2023-04-03T01:54:40;101613.13;;;0.97;73.74
75656;BME280;64252;51.094;13.714;2023-04-03T01:57:05;101617.63;;;0.93;73.26
75656;BME280;64252;51.094;13.714;2023-04-03T01:59:31;101609.34;;;0.87;73.81
75656;BME280;64252;51.094;13.714;2023-04-03T02:01:57;101617.13;;;0.85;73.18
75656;BME280;64252;51.094;13.714;2023-04-03T02:04:23;101621.06;;;0.84;73.42
75656;BME280;64252;51.094;13.714;2023-04-03T02:06:48;101620.22;;;0.84;73.11
75656;BME280;64252;51.094;13.714;2023-04-03T02:09:14;101624.41;;;0.81;72.86
75656;BME280;64252;51.094;13.714;2023-04-03T02:11:40;101619.50;;;0.73;72.88
75656;BME280;64252;51.094;13.714;2023-04-03T02:14:06;101630.06;;;0.71;73.58
75656;BME280;64252;51.094;13.714;2023-04-03T02:16:33;101623.44;;;0.67;72.74
75656;BME280;64252;51.094;13.714;2023-04-03T02:18:58;101635.78;;;0.56;73.57
75656;BME280;64252;51.094;13.714;2023-04-03T02:21:25;101633.28;;;0.55;73.62
75656;BME280;64252;51.094;13.714;2023-04-03T02:23:50;101632.41;;;0.59;73.01
75656;BME280;64252;51.094;13.714;2023-04-03T02:26:18;101630.22;;;0.56;73.07
75656;BME280;64252;51.094;13.714;2023-04-03T02:28:44;101637.16;;;0.59;73.25
75656;BME280;64252;51.094;13.714;2023-04-03T02:31:11;101644.13;;;0.56;72.98
75656;BME280;64252;51.094;13.714;2023-04-03T02:33:39;101634.16;;;0.50;73.42
75656;BME280;64252;51.094;13.714;2023-04-03T02:36:07;101641.41;;;0.51;73.26
75656;BME280;64252;51.094;13.714;2023-04-03T02:38:33;101636.16;;;0.44;73.56
75656;BME280;64252;51.094;13.714;2023-04-03T02:41:05;101639.34;;;0.33;73.87
75656;BME280;64252;51.094;13.714;2023-04-03T02:43:32;101646.03;;;0.27;74.72
75656;BME280;64252;51.094;13.714;2023-04-03T02:45:58;101648.28;;;0.20;75.28
75656;BME280;64252;51.094;13.714;2023-04-03T02:48:24;101644.16;;;0.17;75.78
75656;BME280;64252;51.094;13.714;2023-04-03T02:50:50;101651.06;;;0.20;75.72
75656;BME280;64252;51.094;13.714;2023-04-03T02:53:15;101649.53;;;0.04;76.67
75656;BME280;64252;51.094;13.714;2023-04-03T02:55:41;101660.72;;;-0.07;76.87
75656;BME280;64252;51.094;13.714;2023-04-03T02:58:07;101668.47;;;-0.09;77.24
75656;BME280;64252;51.094;13.714;2023-04-03T03:00:33;101661.31;;;-0.15;77.54
75656;BME280;64252;51.094;13.714;2023-04-03T03:02:59;101668.00;;;-0.21;78.00
75656;BME280;64252;51.094;13.714;2023-04-03T03:05:26;101664.16;;;-0.25;78.16
75656;BME280;64252;51.094;13.714;2023-04-03T03:07:51;101667.78;;;-0.29;78.71
75656;BME280;64252;51.094;13.714;2023-04-03T03:10:17;101673.38;;;-0.39;78.55
75656;BME280;64252;51.094;13.714;2023-04-03T03:12:44;101674.25;;;-0.49;79.29
75656;BME280;64252;51.094;13.714;2023-04-03T03:15:10;101675.38;;;-0.55;79.92
75656;BME280;64252;51.094;13.714;2023-04-03T03:17:36;101675.13;;;-0.64;80.19
75656;BME280;64252;51.094;13.714;2023-04-03T03:20:03;101669.84;;;-0.60;80.54
75656;BME280;64252;51.094;13.714;2023-04-03T03:22:29;101682.63;;;-0.64;80.25
75656;BME280;64252;51.094;13.714;2023-04-03T03:24:54;101680.47;;;-0.77;80.53
75656;BME280;64252;51.094;13.714;2023-04-03T03:27:20;101678.19;;;-0.70;80.41
75656;BME280;64252;51.094;13.714;2023-04-03T03:29:46;101690.44;;;-0.76;81.32
75656;BME280;64252;51.094;13.714;2023-04-03T03:32:13;101690.44;;;-0.81;81.43
75656;BME280;64252;51.094;13.714;2023-04-03T03:34:38;101681.59;;;-0.89;81.59
75656;BME280;64252;51.094;13.714;2023-04-03T03:37:04;101681.06;;;-0.91;81.55
75656;BME280;64252;51.094;13.714;2023-04-03T03:39:30;101686.59;;;-0.91;81.42
75656;BME280;64252;51.094;13.714;2023-04-03T03:41:58;101687.13;;;-0.94;81.83
75656;BME280;64252;51.094;13.714;2023-04-03T03:44:23;101687.97;;;-0.93;81.75
75656;BME280;64252;51.094;13.714;2023-04-03T03:46:49;101686.59;;;-0.91;82.06
75656;BME280;64252;51.094;13.714;2023-04-03T03:49:15;101691.59;;;-1.03;82.66
75656;BME280;64252;51.094;13.714;2023-04-03T03:51:40;101692.44;;;-1.02;82.47
75656;BME280;64252;51.094;13.714;2023-04-03T03:54:06;101697.72;;;-1.06;83.19
75656;BME280;64252;51.094;13.714;2023-04-03T03:56:33;101697.44;;;-1.19;83.24
75656;BME280;64252;51.094;13.714;2023-04-03T03:58:59;101695.50;;;-1.14;83.49
75656;BME280;64252;51.094;13.714;2023-04-03T04:01:24;101692.19;;;-1.16;82.99
75656;BME280;64252;51.094;13.714;2023-04-03T04:03:51;101689.41;;;-1.21;83.25
75656;BME280;64252;51.094;13.714;2023-04-03T04:06:22;101696.06;;;-1.22;83.40
75656;BME280;64252;51.094;13.714;2023-04-03T04:08:48;101696.63;;;-1.25;83.83
75656;BME280;64252;51.094;13.714;2023-04-03T04:11:14;101695.50;;;-1.19;83.14
75656;BME280;64252;51.094;13.714;2023-04-03T04:13:41;101698.81;;;-1.22;83.78
75656;BME280;64252;51.094;13.714;2023-04-03T04:16:28;101699.66;;;-1.21;83.47
75656;BME280;64252;51.094;13.714;2023-04-03T04:18:55;101699.38;;;-1.25;83.61
75656;BME280;64252;51.094;13.714;2023-04-03T04:21:21;101708.81;;;-1.31;83.81
75656;BME280;64252;51.094;13.714;2023-04-03T04:23:49;101713.81;;;-1.33;84.09
75656;BME280;64252;51.094;13.714;2023-04-03T04:26:15;101708.81;;;-1.36;84.19
75656;BME280;64252;51.094;13.714;2023-04-03T04:28:41;101719.34;;;-1.33;83.99
75656;BME280;64252;51.094;13.714;2023-04-03T04:31:14;101711.31;;;-1.35;84.12
75656;BME280;64252;51.094;13.714;2023-04-03T04:33:42;101727.09;;;-1.35;84.56
75656;BME280;64252;51.094;13.714;2023-04-03T04:36:10;101718.25;;;-1.37;84.69
75656;BME280;64252;51.094;13.714;2023-04-03T04:38:36;101726.00;;;-1.34;84.12
75656;BME280;64252;51.094;13.714;2023-04-03T04:41:02;101717.41;;;-1.48;84.53
75656;BME280;64252;51.094;13.714;2023-04-03T04:43:28;101736.53;;;-1.46;84.83
75656;BME280;64252;51.094;13.714;2023-04-03T04:46:06;101729.06;;;-1.51;85.06
75656;BME280;64252;51.094;13.714;2023-04-03T04:48:37;101737.63;;;-1.52;84.48
75656;BME280;64252;51.094;13.714;2023-04-03T04:51:04;101739.28;;;-1.51;85.07
75656;BME280;64252;51.094;13.714;2023-04-03T04:53:30;101739.84;;;-1.49;84.91
75656;BME280;64252;51.094;13.714;2023-04-03T04:55:57;101737.06;;;-1.49;85.19
75656;BME280;64252;51.094;13.714;2023-04-03T04:58:22;101740.94;;;-1.40;84.55
75656;BME280;64252;51.094;13.714;2023-04-03T05:00:48;101747.59;;;-1.51;85.17
75656;BME280;64252;51.094;13.714;2023-04-03T05:03:19;101744.53;;;-1.55;85.39
75656;BME280;64252;51.094;13.714;2023-04-03T05:05:45;101752.81;;;-1.60;85.52
75656;BME280;64252;51.094;13.714;2023-04-03T05:08:11;101756.44;;;-1.54;85.29
75656;BME280;64252;51.094;13.714;2023-04-03T05:10:38;101752.56;;;-1.53;85.63
75656;BME280;64252;51.094;13.714;2023-04-03T05:13:06;101746.47;;;-1.50;85.71
75656;BME280;64252;51.094;13.714;2023-04-03T05:15:31;101760.06;;;-1.49;85.17
75656;BME280;64252;51.094;13.714;2023-04-03T05:17:57;101753.16;;;-1.46;85.01
75656;BME280;64252;51.094;13.714;2023-04-03T05:20:23;101757.56;;;-1.40;84.97
75656;BME280;64252;51.094;13.714;2023-04-03T05:22:49;101762.28;;;-1.41;84.86
75656;BME280;64252;51.094;13.714;2023-04-03T05:25:15;101758.13;;;-1.43;85.08
75656;BME280;64252;51.094;13.714;2023-04-03T05:27:43;101760.31;;;-1.45;85.19
75656;BME280;64252;51.094;13.714;2023-04-03T05:30:08;101762.00;;;-1.49;85.21
75656;BME280;64252;51.094;13.714;2023-04-03T05:32:35;101758.13;;;-1.48;85.04
75656;BME280;64252;51.094;13.714;2023-04-03T05:35:12;101760.31;;;-1.45;85.07
75656;BME280;64252;51.094;13.714;2023-04-03T05:37:39;101764.50;;;-1.38;85.23
75656;BME280;64252;51.094;13.714;2023-04-03T05:40:07;101763.13;;;-1.35;84.52
75656;BME280;64252;51.094;13.714;2023-04-03T05:42:37;101762.00;;;-1.34;84.54
75656;BME280;64252;51.094;13.714;2023-04-03T05:45:03;101763.69;;;-1.38;84.91
75656;BME280;64252;51.094;13.714;2023-04-03T05:47:29;101760.91;;;-1.38;84.66
75656;BME280;64252;51.094;13.714;2023-04-03T05:49:56;101770.59;;;-1.30;84.94
75656;BME280;64252;51.094;13.714;2023-04-03T05:52:35;101773.09;;;-1.24;83.72
75656;BME280;64252;51.094;13.714;2023-04-03T05:55:02;101772.84;;;-1.27;84.08
75656;BME280;64252;51.094;13.714;2023-04-03T05:57:30;101780.59;;;-1.19;83.86
75656;BME280;64252;51.094;13.714;2023-04-03T05:59:56;101780.28;;;-1.13;84.36
75656;BME280;64252;51.094;13.714;2023-04-03T06:02:24;101776.16;;;-1.05;83.96
75656;BME280;64252;51.094;13.714;2023-04-03T06:04:50;101778.63;;;-0.99;83.25
75656;BME280;64252;51.094;13.714;2023-04-03T06:07:20;101780.84;;;-0.85;83.19
75656;BME280;64252;51.094;13.714;2023-04-03T06:09:50;101785.84;;;-0.77;82.68
75656;BME280;64252;51.094;13.714;2023-04-03T06:12:16;101788.28;;;-0.66;82.25
75656;BME280;64252;51.094;13.714;2023-04-03T06:14:43;101782.97;;;-0.47;81.54
75656;BME280;64252;51.094;13.714;2023-04-03T06:17:09;101796.22;;;-0.19;81.16
75656;BME280;64252;51.094;13.714;2023-04-03T06:19:35;101792.31;;;-0.13;79.82
75656;BME280;64252;51.094;13.714;2023-04-03T06:22:01;101794.50;;;-0.05;79.68
75656;BME280;64252;51.094;13.714;2023-04-03T06:24:29;101794.78;;;-0.01;78.93
75656;BME280;64252;51.094;13.714;2023-04-03T06:26:57;101792.75;;;0.10;78.28
75656;BME280;64252;51.094;13.714;2023-04-03T06:29:23;101794.41;;;0.16;78.67
75656;BME280;64252;51.094;13.714;2023-04-03T06:31:50;101803.28;;;0.23;78.41
75656;BME280;64252;51.094;13.714;2023-04-03T06:34:16;101803.22;;;0.33;77.75
75656;BME280;64252;51.094;13.714;2023-04-03T06:36:42;101808.22;;;0.36;77.61
75656;BME280;64252;51.094;13.714;2023-04-03T06:39:13;101798.13;;;0.50;77.30
75656;BME280;64252;51.094;13.714;2023-04-03T06:41:39;101808.66;;;0.53;77.52
75656;BME280;64252;51.094;13.714;2023-04-03T06:44:05;101806.13;;;0.57;77.29
75656;BME280;64252;51.094;13.714;2023-04-03T06:46:31;101804.19;;;0.57;76.19
75656;BME280;64252;51.094;13.714;2023-04-03T06:48:57;101807.44;;;0.69;76.11
75656;BME280;64252;51.094;13.714;2023-04-03T06:51:27;101805.13;;;0.81;76.14
75656;BME280;64252;51.094;13.714;2023-04-03T06:53:54;101804.38;;;1.05;75.45
75656;BME280;64252;51.094;13.714;2023-04-03T06:56:22;101808.88;;;1.01;75.72
75656;BME280;64252;51.094;13.714;2023-04-03T06:58:49;101816.09;;;1.36;74.49
75656;BME280;64252;51.094;13.714;2023-04-03T07:01:17;101810.84;;;1.29;74.30
75656;BME280;64252;51.094;13.714;2023-04-03T07:03:46;101817.44;;;1.38;73.85
75656;BME280;64252;51.094;13.714;2023-04-03T07:06:15;101820.69;;;1.50;73.89
75656;BME280;64252;51.094;13.714;2023-04-03T07:08:42;101812.44;;;1.40;73.83
75656;BME280;64252;51.094;13.714;2023-04-03T07:11:09;101838.63;;;1.34;71.93
75656;BME280;64252;51.094;13.714;2023-04-03T07:13:35;101829.69;;;1.37;72.34
75656;BME280;64252;51.094;13.714;2023-04-03T07:16:02;101833.44;;;1.51;72.00
75656;BME280;64252;51.094;13.714;2023-04-03T07:18:29;101834.91;;;1.72;72.37
75656;BME280;64252;51.094;13.714;2023-04-03T07:20:54;101841.69;;;1.61;71.58
75656;BME280;64252;51.094;13.714;2023-04-03T07:23:21;101840.81;;;1.37;72.44
75656;BME280;64252;51.094;13.714;2023-04-03T07:25:48;101841.09;;;1.41;72.34
75656;BME280;64252;51.094;13.714;2023-04-03T07:28:16;101839.53;;;1.58;72.09
75656;BME280;64252;51.094;13.714;2023-04-03T07:30:46;101842.34;;;1.53;73.34
75656;BME280;64252;51.094;13.714;2023-04-03T07:33:14;101842.94;;;1.50;72.15
75656;BME280;64252;51.094;13.714;2023-04-03T07:35:41;101844.16;;;1.39;72.44
75656;BME280;64252;51.094;13.714;2023-04-03T07:38:08;101854.38;;;1.49;73.23
75656;BME280;64252;51.094;13.714;2023-04-03T07:40:34;101856.88;;;1.50;72.84
75656;BME280;64252;51.094;13.714;2023-04-03T07:43:00;101846.97;;;1.34;72.91
75656;BME280;64252;51.094;13.714;2023-04-03T07:45:27;101850.88;;;1.33;72.56
75656;BME280;64252;51.094;13.714;2023-04-03T07:47:52;101856.94;;;1.40;72.23
75656;BME280;64252;51.094;13.714;2023-04-03T07:50:18;101852.47;;;1.44;72.58
75656;BME280;64252;51.094;13.714;2023-04-03T07:52:45;101857.66;;;1.51;71.78
75656;BME280;64252;51.094;13.714;2023-04-03T07:55:12;101863.50;;;1.54;71.49
75656;BME280;64252;51.094;13.714;2023-04-03T07:57:38;101856.13;;;1.40;71.49
75656;BME280;64252;51.094;13.714;2023-04-03T08:00:04;101858.34;;;1.66;71.40
75656;BME280;64252;51.094;13.714;2023-04-03T08:02:37;101855.38;;;1.87;70.92
75656;BME280;64252;51.094;13.714;2023-04-03T08:05:03;101849.09;;;2.00;70.46
75656;BME280;64252;51.094;13.714;2023-04-03T08:07:29;101848.91;;;2.15;69.72
75656;BME280;64252;51.094;13.714;2023-04-03T08:09:54;101856.16;;;2.16;69.35
75656;BME280;64252;51.094;13.714;2023-04-03T08:12:20;101848.25;;;1.99;70.40
75656;BME280;64252;51.094;13.714;2023-04-03T08:14:46;101850.53;;;2.21;69.20
75656;BME280;64252;51.094;13.714;2023-04-03T08:17:11;101849.34;;;2.46;67.99
75656;BME280;64252;51.094;13.714;2023-04-03T08:19:39;101844.41;;;2.80;67.78
75656;BME280;64252;51.094;13.714;2023-04-03T08:22:06;101859.63;;;2.69;67.91
75656;BME280;64252;51.094;13.714;2023-04-03T08:24:35;101840.56;;;2.76;67.06
75656;BME280;64252;51.094;13.714;2023-04-03T08:27:02;101855.22;;;2.87;68.39
75656;BME280;64252;51.094;13.714;2023-04-03T08:29:28;101848.47;;;2.88;66.44
75656;BME280;64252;51.094;13.714;2023-04-03T08:31:54;101849.16;;;2.98;67.05
75656;BME280;64252;51.094;13.714;2023-04-03T08:34:20;101851.84;;;3.22;66.61
75656;BME280;64252;51.094;13.714;2023-04-03T08:36:46;101854.56;;;3.27;66.04
75656;BME280;64252;51.094;13.714;2023-04-03T08:39:12;101856.41;;;2.99;66.60
75656;BME280;64252;51.094;13.714;2023-04-03T08:41:41;101854.13;;;3.01;66.66
75656;BME280;64252;51.094;13.714;2023-04-03T08:44:39;101852.81;;;3.31;66.88
75656;BME280;64252;51.094;13.714;2023-04-03T08:49:53;101860.28;;;3.36;65.75
75656;BME280;64252;51.094;13.714;2023-04-03T08:52:39;101855.34;;;3.14;65.92
75656;BME280;64252;51.094;13.714;2023-04-03T08:58:05;101853.22;;;3.25;66.10
75656;BME280;64252;51.094;13.714;2023-04-03T09:00:45;101852.53;;;3.14;65.52
75656;BME280;64252;51.094;13.714;2023-04-03T09:03:13;101844.41;;;3.64;64.11
75656;BME280;64252;51.094;13.714;2023-04-03T09:06:03;101853.69;;;4.05;64.57
75656;BME280;64252;51.094;13.714;2023-04-03T09:11:26;101849.53;;;3.89;63.25
75656;BME280;64252;51.094;13.714;2023-04-03T09:14:15;101847.59;;;4.03;63.43
75656;BME280;64252;51.094;13.714;2023-04-03T09:16:59;101846.72;;;3.75;63.38
75656;BME280;64252;51.094;13.714;2023-04-03T09:22:24;101846.59;;;3.34;64.10
75656;BME280;64252;51.094;13.714;2023-04-03T09:25:32;101845.91;;;3.10;66.03
75656;BME280;64252;51.094;13.714;2023-04-03T09:28:02;101849.97;;;2.99;65.26
75656;BME280;64252;51.094;13.714;2023-04-03T09:30:29;101852.47;;;3.00;65.21
75656;BME280;64252;51.094;13.714;2023-04-03T09:32:56;101842.38;;;3.04;65.17
75656;BME280;64252;51.094;13.714;2023-04-03T09:35:31;101845.63;;;3.90;63.17
75656;BME280;64252;51.094;13.714;2023-04-03T09:40:38;101840.69;;;4.77;58.09
75656;BME280;64252;51.094;13.714;2023-04-03T09:43:26;101827.72;;;4.32;57.96
75656;BME280;64252;51.094;13.714;2023-04-03T09:45:53;101830.06;;;4.66;58.76
75656;BME280;64252;51.094;13.714;2023-04-03T09:48:21;101829.25;;;5.32;56.37
75656;BME280;64252;51.094;13.714;2023-04-03T09:53:38;101833.53;;;5.29;55.85
75656;BME280;64252;51.094;13.714;2023-04-03T09:58:47;101833.38;;;4.90;56.38
75656;BME280;64252;51.094;13.714;2023-04-03T10:01:23;101827.25;;;4.52;56.27
75656;BME280;64252;51.094;13.714;2023-04-03T10:06:38;101820.59;;;4.62;55.32
75656;BME280;64252;51.094;13.714;2023-04-03T10:12:11;101820.75;;;5.15;55.49
75656;BME280;64252;51.094;13.714;2023-04-03T10:14:40;101820.81;;;4.65;55.30
75656;BME280;64252;51.094;13.714;2023-04-03T10:17:30;101818.50;;;4.31;55.98
75656;BME280;64252;51.094;13.714;2023-04-03T10:31:34;101805.47;;;4.63;53.65
75656;BME280;64252;51.094;13.714;2023-04-03T10:36:58;101809.69;;;4.24;53.99
75656;BME280;64252;51.094;13.714;2023-04-03T10:45:41;101794.16;;;5.79;49.89
75656;BME280;64252;51.094;13.714;2023-04-03T10:48:33;101798.56;;;6.02;50.52
75656;BME280;64252;51.094;13.714;2023-04-03T10:51:11;101812.69;;;5.36;48.63
75656;BME280;64252;51.094;13.714;2023-04-03T10:54:05;101800.31;;;5.14;48.58
75656;BME280;64252;51.094;13.714;2023-04-03T11:01:41;101788.88;;;5.24;46.80
75656;BME280;64252;51.094;13.714;2023-04-03T11:04:09;101787.06;;;5.28;48.05
75656;BME280;64252;51.094;13.714;2023-04-03T11:06:45;101789.66;;;4.94;48.22
75656;BME280;64252;51.094;13.714;2023-04-03T11:09:26;101792.75;;;4.93;49.67
75656;BME280;64252;51.094;13.714;2023-04-03T11:12:00;101783.16;;;5.07;49.70
75656;BME280;64252;51.094;13.714;2023-04-03T11:14:30;101775.16;;;5.45;49.52
75656;BME280;64252;51.094;13.714;2023-04-03T11:17:06;101785.56;;;5.84;48.33
75656;BME280;64252;51.094;13.714;2023-04-03T11:24:43;101769.88;;;6.05;46.05
75656;BME280;64252;51.094;13.714;2023-04-03T11:27:17;101767.00;;;5.88;46.39
75656;BME280;64252;51.094;13.714;2023-04-03T11:29:47;101776.25;;;5.36;47.95
75656;BME280;64252;51.094;13.714;2023-04-03T11:34:48;101775.00;;;5.19;48.10
75656;BME280;64252;51.094;13.714;2023-04-03T11:39:54;101756.53;;;5.80;47.85
75656;BME280;64252;51.094;13.714;2023-04-03T11:42:35;101755.47;;;5.98;47.65
75656;BME280;64252;51.094;13.714;2023-04-03T11:45:49;101759.94;;;5.99;46.15
75656;BME280;64252;51.094;13.714;2023-04-03T11:50:44;101769.09;;;5.52;47.24
75656;BME280;64252;51.094;13.714;2023-04-03T11:58:15;101765.69;;;5.94;46.90
75656;BME280;64252;51.094;13.714;2023-04-03T12:05:50;101754.94;;;6.53;45.81
75656;BME280;64252;51.094;13.714;2023-04-03T12:13:42;101746.91;;;6.03;45.14
75656;BME280;64252;51.094;13.714;2023-04-03T12:16:24;101765.66;;;5.55;47.03
75656;BME280;64252;51.094;13.714;2023-04-03T12:40:47;101747.38;;;5.26;49.24
75656;BME280;64252;51.094;13.714;2023-04-03T12:43:48;101760.50;;;5.17;48.95
75656;BME280;64252;51.094;13.714;2023-04-03T12:46:22;101758.81;;;5.39;48.23
75656;BME280;64252;51.094;13.714;2023-04-03T12:48:53;101746.31;;;5.84;47.31
75656;BME280;64252;51.094;13.714;2023-04-03T12:51:37;101742.66;;;5.75;47.14
75656;BME280;64252;51.094;13.714;2023-04-03T12:54:22;101746.63;;;5.74;47.64
75656;BME280;64252;51.094;13.714;2023-04-03T12:56:49;101747.06;;;5.98;48.73
75656;BME280;64252;51.094;13.714;2023-04-03T12:59:23;101769.22;;;5.47;47.90
75656;BME280;64252;51.094;13.714;2023-04-03T13:01:57;101754.91;;;5.17;48.61
75656;BME280;64252;51.094;13.714;2023-04-03T13:04:26;101760.97;;;5.42;49.07
75656;BME280;64252;51.094;13.714;2023-04-03T13:06:52;101750.13;;;5.49;49.04
75656;BME280;64252;51.094;13.714;2023-04-03T13:11:54;101759.13;;;5.37;48.58
75656;BME280;64252;51.094;13.714;2023-04-03T13:14:23;101758.31;;;5.37;48.20
75656;BME280;64252;51.094;13.714;2023-04-03T13:16:56;101746.81;;;5.47;49.54
75656;BME280;64252;51.094;13.714;2023-04-03T13:19:24;101749.09;;;5.75;48.83
75656;BME280;64252;51.094;13.714;2023-04-03T13:24:24;101752.97;;;5.57;48.60
75656;BME280;64252;51.094;13.714;2023-04-03T13:26:51;101754.00;;;5.30;47.60
75656;BME280;64252;51.094;13.714;2023-04-03T13:29:34;101748.13;;;5.41;47.99
75656;BME280;64252;51.094;13.714;2023-04-03T13:32:01;101751.13;;;5.53;48.08
75656;BME280;64252;51.094;13.714;2023-04-03T13:34:42;101750.00;;;5.54;47.69
75656;BME280;64252;51.094;13.714;2023-04-03T13:37:28;101744.44;;;5.62;47.72
75656;BME280;64252;51.094;13.714;2023-04-03T13:40:10;101737.50;;;5.60;48.73
75656;BME280;64252;51.094;13.714;2023-04-03T13:42:38;101746.19;;;5.50;48.49
75656;BME280;64252;51.094;13.714;2023-04-03T13:45:29;101745.47;;;5.36;48.70
75656;BME280;64252;51.094;13.714;2023-04-03T13:48:25;101745.41;;;5.27;49.55
75656;BME280;64252;51.094;13.714;2023-04-03T13:53:20;101737.38;;;5.34;47.74
75656;BME280;64252;51.094;13.714;2023-04-03T13:56:07;101730.66;;;5.44;47.58
75656;BME280;64252;51.094;13.714;2023-04-03T13:58:34;101735.00;;;5.27;47.21
75656;BME280;64252;51.094;13.714;2023-04-03T14:01:22;101739.66;;;5.32;48.77
75656;BME280;64252;51.094;13.714;2023-04-03T14:04:16;101734.59;;;5.43;49.30
75656;BME280;64252;51.094;13.714;2023-04-03T14:06:42;101736.94;;;5.18;48.86
75656;BME280;64252;51.094;13.714;2023-04-03T14:09:09;101734.16;;;4.74;48.80
75656;BME280;64252;51.094;13.714;2023-04-03T14:11:35;101740.06;;;4.72;49.56
75656;BME280;64252;51.094;13.714;2023-04-03T14:14:09;101736.91;;;4.65;49.16
75656;BME280;64252;51.094;13.714;2023-04-03T14:16:42;101731.72;;;4.59;49.10
75656;BME280;64252;51.094;13.714;2023-04-03T14:19:17;101728.16;;;4.67;49.38
75656;BME280;64252;51.094;13.714;2023-04-03T14:21:44;101727.09;;;4.76;48.58
75656;BME280;64252;51.094;13.714;2023-04-03T14:24:09;101724.34;;;4.85;49.70
75656;BME280;64252;51.094;13.714;2023-04-03T14:26:36;101731.13;;;4.84;49.06
75656;BME280;64252;51.094;13.714;2023-04-03T14:29:02;101729.94;;;4.85;49.78
75656;BME280;64252;51.094;13.714;2023-04-03T14:31:28;101728.06;;;4.94;50.94
75656;BME280;64252;51.094;13.714;2023-04-03T14:33:53;101742.69;;;4.69;50.21
75656;BME280;64252;51.094;13.714;2023-04-03T14:36:26;101734.16;;;4.52;49.92
75656;BME280;64252;51.094;13.714;2023-04-03T14:38:53;101740.34;;;4.49;49.99
75656;BME280;64252;51.094;13.714;2023-04-03T14:41:22;101739.44;;;4.39;50.41
75656;BME280;64252;51.094;13.714;2023-04-03T14:43:49;101732.59;;;4.46;49.78
75656;BME280;64252;51.094;13.714;2023-04-03T14:48:47;101725.75;;;4.96;49.75
75656;BME280;64252;51.094;13.714;2023-04-03T14:51:14;101728.91;;;5.25;49.06
75656;BME280;64252;51.094;13.714;2023-04-03T14:53:41;101729.81;;;5.74;46.82
75656;BME280;64252;51.094;13.714;2023-04-03T14:56:14;101720.69;;;5.60;46.45